createdAt,value
2018-09-28T00:02:21.561Z,17.90
2018-09-28T00:04:50.063Z,21.93
2018-09-28T00:07:18.511Z,16.67
2018-09-28T00:09:46.937Z,13.90
2018-09-28T00:12:15.464Z,14.67
2018-09-28T00:14:43.965Z,14.90
2018-09-28T00:17:12.387Z,14.10
2018-09-28T00:19:40.852Z,15.33
2018-09-28T00:22:09.301Z,13.07
2018-09-28T00:24:37.739Z,12.27
2018-09-28T00:27:06.168Z,13.50
2018-09-28T00:29:34.858Z,13.73
2018-09-28T00:32:03.298Z,14.03
2018-09-28T00:34:31.734Z,17.80
2018-09-28T00:37:00.189Z,19.70
2018-09-28T00:39:28.627Z,22.80
2018-09-28T00:41:57.054Z,21.53
2018-09-28T00:44:25.487Z,22.50
2018-09-28T00:46:53.908Z,25.40
2018-09-28T00:49:22.342Z,24.33
2018-09-28T00:51:50.791Z,23.17
2018-09-28T00:54:19.949Z,24.50
2018-09-28T00:56:48.405Z,21.37
2018-09-28T00:59:16.921Z,21.77
2018-09-28T01:01:45.434Z,20.83
2018-09-28T01:04:13.855Z,22.37
2018-09-28T01:06:42.284Z,18.63
2018-09-28T01:09:12.770Z,19.60
2018-09-28T01:11:41.274Z,17.20
2018-09-28T01:14:09.844Z,20.57
2018-09-28T01:16:38.262Z,19.07
2018-09-28T01:19:06.830Z,17.70
2018-09-28T01:21:35.625Z,18.30
2018-09-28T01:24:04.074Z,20.43
2018-09-28T01:26:32.533Z,23.10
2018-09-28T01:29:00.977Z,21.63
2018-09-28T01:31:29.748Z,23.47
2018-09-28T01:33:58.444Z,25.37
2018-09-28T01:36:27.723Z,24.63
2018-09-28T01:38:56.186Z,25.10
2018-09-28T01:41:24.608Z,27.23
2018-09-28T01:43:53.153Z,24.53
2018-09-28T01:46:21.644Z,24.27
2018-09-28T01:48:50.072Z,25.80
2018-09-28T01:51:18.518Z,24.67
2018-09-28T01:53:46.936Z,26.83
2018-09-28T01:56:15.490Z,29.50
2018-09-28T01:58:44.053Z,32.50
2018-09-28T02:01:12.486Z,29.07
2018-09-28T02:03:41.609Z,32.23
2018-09-28T02:06:10.086Z,31.43
2018-09-28T02:08:38.515Z,32.60
2018-09-28T02:11:06.982Z,30.00
2018-09-28T02:13:35.566Z,29.60
2018-09-28T02:16:03.983Z,33.00
2018-09-28T02:18:32.394Z,30.40
2018-09-28T02:21:00.816Z,33.20
2018-09-28T02:23:29.250Z,33.83
2018-09-28T02:25:57.737Z,32.83
2018-09-28T02:28:26.172Z,35.97
2018-09-28T02:30:54.604Z,39.47
2018-09-28T02:33:23.190Z,35.43
2018-09-28T02:35:51.676Z,33.23
2018-09-28T02:38:20.108Z,34.03
2018-09-28T02:40:48.558Z,34.40
2018-09-28T02:43:17.043Z,34.13
2018-09-28T02:45:45.473Z,33.97
2018-09-28T02:48:14.000Z,37.23
2018-09-28T02:50:42.489Z,35.10
2018-09-28T02:53:15.150Z,35.97
2018-09-28T02:55:43.630Z,34.57
2018-09-28T02:58:12.045Z,31.20
2018-09-28T03:00:40.614Z,33.10
2018-09-28T03:03:09.512Z,35.13
2018-09-28T03:05:38.200Z,48.33
2018-09-28T03:08:07.738Z,53.50
2018-09-28T03:10:36.375Z,58.20
2018-09-28T03:13:05.270Z,47.60
2018-09-28T03:15:33.712Z,46.40
2018-09-28T03:18:02.337Z,54.00
2018-09-28T03:20:30.843Z,49.17
2018-09-28T03:22:59.271Z,47.63
2018-09-28T03:25:27.705Z,48.73
2018-09-28T03:27:56.144Z,49.87
2018-09-28T03:30:24.580Z,42.03
2018-09-28T03:32:53.029Z,46.10
2018-09-28T03:35:21.479Z,42.40
2018-09-28T03:37:49.923Z,35.50
2018-09-28T03:40:18.352Z,32.63
2018-09-28T03:42:46.805Z,30.40
2018-09-28T03:45:15.234Z,42.37
2018-09-28T03:47:46.507Z,39.70
2018-09-28T03:50:14.973Z,42.77
2018-09-28T03:52:43.499Z,40.40
2018-09-28T03:55:12.321Z,41.57
2018-09-28T03:57:40.753Z,38.50
2018-09-28T04:00:10.428Z,34.10
2018-09-28T04:02:39.607Z,33.10
2018-09-28T04:05:08.033Z,34.83
2018-09-28T04:07:36.867Z,28.00
2018-09-28T04:10:06.176Z,33.80
2018-09-28T04:12:34.959Z,34.20
2018-09-28T04:15:03.459Z,26.90
2018-09-28T04:17:31.869Z,23.23
2018-09-28T04:20:00.378Z,23.17
2018-09-28T04:22:28.831Z,18.70
2018-09-28T04:24:57.339Z,26.03
2018-09-28T04:27:25.768Z,24.10
2018-09-28T04:29:54.200Z,25.27
2018-09-28T04:32:22.702Z,28.10
2018-09-28T04:34:51.259Z,21.63
2018-09-28T04:37:19.735Z,23.43
2018-09-28T04:39:48.200Z,20.97
2018-09-28T04:42:16.684Z,24.00
2018-09-28T04:44:45.126Z,18.50
2018-09-28T04:47:13.717Z,21.80
2018-09-28T04:49:42.255Z,17.83
2018-09-28T04:52:10.717Z,14.90
2018-09-28T04:54:39.159Z,17.23
2018-09-28T04:57:07.589Z,18.40
2018-09-28T04:59:36.033Z,15.33
2018-09-28T05:02:04.503Z,13.67
2018-09-28T05:04:32.972Z,20.60
2018-09-28T05:07:01.429Z,14.13
2018-09-28T05:09:29.877Z,17.87
2018-09-28T05:11:58.324Z,17.23
2018-09-28T05:14:26.759Z,19.40
2018-09-28T05:16:55.236Z,15.10
2018-09-28T05:19:23.711Z,19.53
2018-09-28T05:21:52.266Z,16.23
2018-09-28T05:24:20.742Z,15.70
2018-09-28T05:26:49.196Z,16.63
2018-09-28T05:29:17.622Z,14.10
2018-09-28T05:31:46.488Z,22.50
2018-09-28T05:34:14.901Z,16.87
2018-09-28T05:36:44.144Z,19.77
2018-09-28T05:39:12.703Z,20.83
2018-09-28T05:41:41.230Z,15.00
2018-09-28T05:44:09.720Z,22.23
2018-09-28T05:46:38.242Z,14.10
2018-09-28T05:49:06.767Z,16.23
2018-09-28T05:51:35.277Z,20.20
2018-09-28T05:54:03.680Z,16.67
2018-09-28T05:56:32.102Z,15.37
2018-09-28T05:59:05.814Z,22.07
2018-09-28T06:02:42.338Z,14.00
2018-09-28T06:05:16.081Z,12.40
2018-09-28T06:07:44.490Z,22.43
2018-09-28T06:10:12.924Z,18.53
2018-09-28T06:12:41.622Z,17.63
2018-09-28T06:15:10.046Z,17.87
2018-09-28T06:17:38.472Z,15.13
2018-09-28T06:20:07.914Z,17.90
2018-09-28T06:22:36.340Z,21.80
2018-09-28T06:25:04.770Z,21.33
2018-09-28T06:27:33.206Z,21.17
2018-09-28T06:30:01.639Z,28.13
2018-09-28T06:32:30.084Z,19.13
2018-09-28T06:34:58.888Z,16.90
2018-09-28T06:37:28.131Z,18.00
2018-09-28T06:39:56.693Z,15.27
2018-09-28T06:42:26.080Z,17.57
2018-09-28T06:44:54.616Z,20.03
2018-09-28T06:47:23.083Z,23.80
2018-09-28T06:49:51.599Z,17.27
2018-09-28T06:52:20.065Z,18.87
2018-09-28T06:54:48.539Z,16.10
2018-09-28T06:57:17.961Z,20.33
2018-09-28T06:59:46.611Z,15.03
2018-09-28T07:02:15.063Z,13.77
2018-09-28T07:04:43.851Z,13.47
2018-09-28T07:07:12.395Z,15.47
2018-09-28T07:09:40.928Z,11.10
2018-09-28T07:12:09.454Z,14.93
2018-09-28T07:14:37.858Z,14.87
2018-09-28T07:17:06.351Z,18.67
2018-09-28T07:19:34.826Z,12.47
2018-09-28T07:22:03.391Z,10.27
2018-09-28T07:24:31.873Z,11.27
2018-09-28T07:27:00.341Z,11.30
2018-09-28T07:29:28.789Z,6.47
2018-09-28T07:31:57.233Z,14.83
2018-09-28T07:34:25.799Z,9.20
2018-09-28T07:36:54.304Z,8.03
2018-09-28T07:39:22.695Z,9.77
2018-09-28T07:41:51.159Z,5.90
2018-09-28T07:44:19.581Z,9.07
2018-09-28T07:46:48.012Z,10.67
2018-09-28T07:49:17.158Z,6.90
2018-09-28T07:51:45.530Z,7.30
2018-09-28T07:54:14.062Z,7.83
2018-09-28T07:56:42.964Z,15.90
2018-09-28T07:59:11.391Z,8.50
2018-09-28T08:01:39.856Z,10.13
2018-09-28T08:04:08.537Z,7.77
2018-09-28T08:06:37.000Z,6.57
2018-09-28T08:09:07.692Z,8.40
2018-09-28T08:11:36.167Z,10.37
2018-09-28T08:14:04.817Z,10.37
2018-09-28T08:16:33.355Z,13.13
2018-09-28T08:19:01.819Z,11.07
2018-09-28T08:21:30.317Z,7.17
2018-09-28T08:23:58.939Z,11.73
2018-09-28T08:26:27.457Z,6.53
2018-09-28T08:28:56.031Z,9.13
2018-09-28T08:31:24.543Z,7.93
2018-09-28T08:33:53.574Z,10.27
2018-09-28T08:36:22.204Z,7.37
2018-09-28T08:38:50.525Z,17.53
2018-09-28T08:41:19.011Z,8.10
2018-09-28T08:43:47.510Z,7.43
2018-09-28T08:46:15.905Z,12.13
2018-09-28T08:48:44.345Z,12.67
2018-09-28T08:51:12.781Z,11.40
2018-09-28T08:53:41.219Z,11.77
2018-09-28T08:56:09.705Z,8.27
2018-09-28T08:58:38.133Z,8.23
2018-09-28T09:01:06.845Z,5.33
2018-09-28T09:03:35.312Z,10.23
2018-09-28T09:06:03.812Z,10.67
2018-09-28T09:08:32.271Z,10.23
2018-09-28T09:11:00.696Z,11.07
2018-09-28T09:13:29.128Z,12.57
2018-09-28T09:15:57.661Z,6.77
2018-09-28T09:18:26.215Z,13.20
2018-09-28T09:20:54.541Z,9.97
2018-09-28T09:23:22.968Z,10.00
2018-09-28T09:25:51.383Z,6.57
2018-09-28T09:28:20.148Z,9.53
2018-09-28T09:30:48.584Z,10.17
2018-09-28T09:33:17.012Z,6.80
2018-09-28T09:35:45.493Z,9.80
2018-09-28T09:38:13.986Z,11.57
2018-09-28T09:40:42.436Z,14.13
2018-09-28T09:43:10.955Z,9.60
2018-09-28T09:45:39.482Z,13.70
2018-09-28T09:48:07.950Z,10.57
2018-09-28T09:50:36.390Z,15.93
2018-09-28T09:53:04.830Z,10.87
2018-09-28T09:55:33.942Z,12.40
2018-09-28T09:58:02.405Z,18.23
2018-09-28T10:00:36.242Z,9.33
2018-09-28T10:03:10.034Z,11.90
2018-09-28T10:05:38.461Z,10.93
2018-09-28T10:08:06.897Z,12.53
2018-09-28T10:10:35.464Z,15.87
2018-09-28T10:13:03.920Z,14.03
2018-09-28T10:15:32.349Z,12.93
2018-09-28T10:18:00.788Z,12.57
2018-09-28T10:20:29.226Z,13.33
2018-09-28T10:22:57.670Z,10.77
2018-09-28T10:25:26.116Z,12.50
2018-09-28T10:27:54.631Z,13.50
2018-09-28T10:30:23.074Z,9.93
2018-09-28T10:32:51.588Z,10.77
2018-09-28T10:35:20.046Z,12.30
2018-09-28T10:37:48.525Z,11.50
2018-09-28T10:40:16.982Z,12.40
2018-09-28T10:42:45.417Z,8.90
2018-09-28T10:45:13.898Z,14.63
2018-09-28T10:47:42.339Z,14.77
2018-09-28T10:50:10.789Z,9.20
2018-09-28T10:52:39.426Z,11.47
2018-09-28T10:55:07.812Z,11.77
2018-09-28T10:57:36.251Z,12.17
2018-09-28T11:00:04.990Z,12.67
2018-09-28T11:02:33.471Z,13.20
2018-09-28T11:05:02.583Z,11.53
2018-09-28T11:07:31.283Z,8.60
2018-09-28T11:09:59.958Z,15.10
2018-09-28T11:12:28.379Z,12.47
2018-09-28T11:14:56.799Z,13.73
2018-09-28T11:17:25.222Z,10.77
2018-09-28T11:19:53.656Z,12.87
2018-09-28T11:22:22.087Z,11.03
2018-09-28T11:24:50.558Z,8.97
2018-09-28T11:27:19.035Z,13.77
2018-09-28T11:29:47.454Z,12.13
2018-09-28T11:32:16.299Z,11.63
2018-09-28T11:34:44.738Z,11.90
2018-09-28T11:37:13.182Z,12.50
2018-09-28T11:39:41.750Z,14.07
2018-09-28T11:42:10.168Z,10.90
2018-09-28T11:44:38.720Z,14.30
2018-09-28T11:47:07.135Z,12.27
2018-09-28T11:49:35.571Z,11.07
2018-09-28T11:52:04.016Z,8.77
2018-09-28T11:54:32.458Z,15.40
2018-09-28T11:57:01.665Z,9.73
2018-09-28T11:59:30.171Z,7.90
2018-09-28T12:01:59.301Z,14.03
2018-09-28T12:04:27.727Z,12.17
2018-09-28T12:06:56.224Z,11.63
2018-09-28T12:09:24.642Z,7.13
2018-09-28T12:11:53.481Z,12.17
2018-09-28T12:14:21.910Z,9.40
2018-09-28T12:16:50.347Z,6.60
2018-09-28T12:19:18.971Z,11.73
2018-09-28T12:21:47.520Z,8.63
2018-09-28T12:24:15.899Z,13.87
2018-09-28T12:26:44.316Z,5.97
2018-09-28T12:29:12.750Z,9.07
2018-09-28T12:31:41.177Z,7.87
2018-09-28T12:34:09.623Z,11.40
2018-09-28T12:36:38.087Z,8.73
2018-09-28T12:39:08.189Z,9.07
2018-09-28T12:41:36.645Z,8.67
2018-09-28T12:44:05.148Z,9.57
2018-09-28T12:46:33.629Z,5.20
2018-09-28T12:49:02.040Z,7.10
2018-09-28T12:51:30.512Z,8.90
2018-09-28T12:53:58.942Z,11.40
2018-09-28T12:56:27.765Z,8.37
2018-09-28T12:58:56.207Z,11.07
2018-09-28T13:01:25.241Z,11.03
2018-09-28T13:03:54.006Z,8.70
2018-09-28T13:06:22.460Z,14.07
2018-09-28T13:08:51.017Z,9.13
2018-09-28T13:11:19.414Z,12.30
2018-09-28T13:13:47.958Z,7.03
2018-09-28T13:16:16.390Z,10.17
2018-09-28T13:18:44.882Z,10.57
2018-09-28T13:21:13.344Z,9.87
2018-09-28T13:23:41.770Z,11.10
2018-09-28T13:26:10.277Z,9.10
2018-09-28T13:28:38.676Z,7.63
2018-09-28T13:31:07.288Z,9.00
2018-09-28T13:33:35.723Z,7.83
2018-09-28T13:36:04.446Z,8.17
2018-09-28T13:38:33.007Z,7.97
2018-09-28T13:41:01.968Z,9.73
2018-09-28T13:43:30.402Z,14.47
2018-09-28T13:45:58.916Z,7.77
2018-09-28T13:48:27.432Z,9.10
2018-09-28T13:50:55.781Z,7.13
2018-09-28T13:53:24.232Z,10.30
2018-09-28T13:55:52.704Z,7.63
2018-09-28T13:58:21.198Z,6.50
2018-09-28T14:00:49.699Z,8.23
2018-09-28T14:03:18.135Z,9.20
2018-09-28T14:05:46.587Z,7.07
2018-09-28T14:08:15.086Z,8.50
2018-09-28T14:10:43.509Z,7.23
2018-09-28T14:13:11.949Z,9.00
2018-09-28T14:15:40.387Z,7.37
2018-09-28T14:18:09.010Z,6.33
2018-09-28T14:20:37.435Z,10.57
2018-09-28T14:23:05.871Z,6.43
2018-09-28T14:25:34.320Z,6.10
2018-09-28T14:28:02.892Z,6.23
2018-09-28T14:30:31.300Z,8.90
2018-09-28T14:32:59.764Z,7.60
2018-09-28T14:35:28.232Z,7.67
2018-09-28T14:37:56.717Z,6.83
2018-09-28T14:40:25.243Z,8.13
2018-09-28T14:42:53.636Z,9.10
2018-09-28T14:45:22.332Z,6.27
2018-09-28T14:47:50.791Z,7.80
2018-09-28T14:50:19.300Z,5.67
2018-09-28T14:52:47.747Z,12.73
2018-09-28T14:55:16.180Z,6.00
2018-09-28T14:57:44.626Z,7.27
2018-09-28T15:00:13.083Z,7.20
2018-09-28T15:02:41.549Z,9.40
2018-09-28T15:05:10.584Z,9.13
2018-09-28T15:07:39.111Z,6.93
2018-09-28T15:10:07.896Z,6.27
2018-09-28T15:12:36.476Z,8.60
2018-09-28T15:15:04.940Z,8.50
2018-09-28T15:17:33.489Z,5.03
2018-09-28T15:20:01.936Z,6.33
2018-09-28T15:22:30.540Z,7.07
2018-09-28T15:24:59.040Z,7.87
2018-09-28T15:27:27.654Z,7.07
2018-09-28T15:29:56.120Z,5.13
2018-09-28T15:32:24.577Z,6.27
2018-09-28T15:34:53.033Z,7.03
2018-09-28T15:37:21.476Z,6.10
2018-09-28T15:39:49.926Z,7.53
2018-09-28T15:42:18.381Z,4.33
2018-09-28T15:44:46.807Z,15.10
2018-09-28T15:47:15.255Z,7.13
2018-09-28T15:49:43.707Z,5.73
2018-09-28T15:52:12.364Z,4.00
2018-09-28T15:54:40.915Z,4.70
2018-09-28T15:57:09.497Z,6.27
2018-09-28T15:59:37.936Z,8.87
2018-09-28T16:02:06.871Z,6.77
2018-09-28T16:04:35.405Z,5.37
2018-09-28T16:07:04.940Z,6.07
2018-09-28T16:09:34.126Z,5.00
2018-09-28T16:12:02.667Z,5.67
2018-09-28T16:14:31.658Z,3.97
2018-09-28T16:17:01.052Z,4.67
2018-09-28T16:19:29.674Z,9.70
2018-09-28T16:21:58.206Z,5.20
2018-09-28T16:24:26.923Z,5.93
2018-09-28T16:26:55.384Z,5.03
2018-09-28T16:29:24.079Z,5.53
2018-09-28T16:31:52.541Z,4.77
2018-09-28T16:34:21.240Z,5.23
2018-09-28T16:36:49.718Z,5.57
2018-09-28T16:39:18.505Z,6.83
2018-09-28T16:41:46.976Z,5.27
2018-09-28T16:44:15.396Z,5.23
2018-09-28T16:46:43.926Z,5.53
2018-09-28T16:49:12.366Z,5.43
2018-09-28T16:51:40.888Z,4.47
2018-09-28T16:54:09.495Z,8.83
2018-09-28T16:56:38.231Z,6.07
2018-09-28T16:59:06.968Z,6.83
2018-09-28T17:01:35.462Z,7.27
2018-09-28T17:04:03.961Z,8.17
2018-09-28T17:06:32.498Z,6.90
2018-09-28T17:09:01.092Z,9.47
2018-09-28T17:11:29.516Z,9.73
2018-09-28T17:13:58.566Z,8.27
2018-09-28T17:16:27.091Z,8.23
2018-09-28T17:18:55.527Z,8.60
2018-09-28T17:21:24.061Z,8.27
2018-09-28T17:23:52.559Z,8.47
2018-09-28T17:26:21.124Z,7.13
2018-09-28T17:28:49.680Z,8.27
2018-09-28T17:31:18.286Z,5.67
2018-09-28T17:33:46.855Z,4.50
2018-09-28T17:36:15.443Z,5.10
2018-09-28T17:38:44.008Z,6.40
2018-09-28T17:41:12.645Z,10.97
2018-09-28T17:43:41.108Z,10.63
2018-09-28T17:46:09.576Z,4.27
2018-09-28T17:48:38.028Z,2.90
2018-09-28T17:51:06.704Z,6.67
2018-09-28T17:53:35.311Z,10.13
2018-09-28T17:56:03.805Z,5.77
2018-09-28T17:58:32.274Z,7.80
2018-09-28T18:01:00.797Z,4.40
2018-09-28T18:03:29.516Z,7.63
2018-09-28T18:05:58.017Z,7.33
2018-09-28T18:08:26.525Z,4.80
2018-09-28T18:10:55.602Z,7.23
2018-09-28T18:13:24.092Z,5.40
2018-09-28T18:15:52.552Z,8.93
2018-09-28T18:18:20.985Z,10.67
2018-09-28T18:20:49.461Z,6.53
2018-09-28T18:23:17.930Z,8.23
2018-09-28T18:25:46.386Z,7.57
2018-09-28T18:28:16.379Z,7.47
2018-09-28T18:30:44.861Z,8.43
2018-09-28T18:33:13.747Z,9.23
2018-09-28T18:35:43.357Z,7.83
2018-09-28T18:38:11.911Z,7.40
2018-09-28T18:40:40.482Z,6.93
2018-09-28T18:43:09.298Z,5.63
2018-09-28T18:45:37.851Z,8.73
2018-09-28T18:48:06.501Z,7.50
2018-09-28T18:50:35.228Z,5.47
2018-09-28T18:53:04.944Z,5.17
2018-09-28T18:55:33.563Z,8.83
2018-09-28T18:58:03.114Z,6.37
2018-09-28T19:00:31.546Z,9.03
2018-09-28T19:03:00.191Z,8.30
2018-09-28T19:05:28.692Z,6.97
2018-09-28T19:08:03.916Z,5.87
2018-09-28T19:10:32.361Z,3.93
2018-09-28T19:13:00.793Z,5.80
2018-09-28T19:15:29.356Z,6.30
2018-09-28T19:17:57.802Z,4.17
2018-09-28T19:20:26.271Z,4.63
2018-09-28T19:22:54.865Z,9.67
2018-09-28T19:25:23.382Z,3.77
2018-09-28T19:27:51.925Z,7.23
2018-09-28T19:30:20.359Z,8.30
2018-09-28T19:32:48.811Z,7.67
2018-09-28T19:35:17.513Z,6.50
2018-09-28T19:37:46.490Z,6.77
2018-09-28T19:40:15.235Z,7.83
2018-09-28T19:42:44.445Z,5.60
2018-09-28T19:45:12.935Z,6.70
2018-09-28T19:47:41.424Z,4.40
2018-09-28T19:50:10.010Z,5.53
2018-09-28T19:52:38.448Z,6.70
2018-09-28T19:55:06.881Z,9.00
2018-09-28T19:57:35.416Z,10.67
2018-09-28T20:00:03.921Z,4.57
2018-09-28T20:02:32.391Z,3.40
2018-09-28T20:05:01.200Z,6.87
2018-09-28T20:07:30.159Z,4.83
2018-09-28T20:09:58.642Z,8.87
2018-09-28T20:12:27.105Z,8.57
2018-09-28T20:14:55.692Z,4.83
2018-09-28T20:17:24.178Z,5.50
2018-09-28T20:19:52.619Z,4.53
2018-09-28T20:22:21.212Z,6.17
2018-09-28T20:24:49.679Z,8.43
2018-09-28T20:27:18.235Z,5.37
2018-09-28T20:29:47.138Z,7.13
2018-09-28T20:32:15.649Z,3.87
2018-09-28T20:34:44.083Z,4.43
2018-09-28T20:37:12.522Z,3.50
2018-09-28T20:39:40.960Z,5.83
2018-09-28T20:42:09.411Z,5.03
2018-09-28T20:44:37.888Z,3.97
2018-09-28T20:47:06.400Z,5.10
2018-09-28T20:49:34.854Z,2.33
2018-09-28T20:52:03.311Z,5.77
2018-09-28T20:54:31.775Z,3.67
2018-09-28T20:57:01.698Z,4.77
2018-09-28T20:59:30.270Z,3.97
2018-09-28T21:01:58.831Z,2.37
2018-09-28T21:04:27.516Z,3.93
2018-09-28T21:06:56.901Z,5.87
2018-09-28T21:09:26.564Z,3.40
2018-09-28T21:11:55.014Z,3.37
2018-09-28T21:14:23.442Z,6.57
2018-09-28T21:16:51.884Z,3.03
2018-09-28T21:19:20.295Z,5.17
2018-09-28T21:21:48.720Z,4.13
2018-09-28T21:24:17.170Z,3.90
2018-09-28T21:26:45.596Z,3.50
2018-09-28T21:29:14.131Z,3.77
2018-09-28T21:31:42.658Z,3.13
2018-09-28T21:34:11.430Z,3.40
2018-09-28T21:36:40.684Z,5.20
2018-09-28T21:39:10.375Z,3.13
2018-09-28T21:41:39.139Z,4.10
2018-09-28T21:44:08.191Z,6.33
2018-09-28T21:46:37.633Z,3.97
2018-09-28T21:49:06.167Z,4.47
2018-09-28T21:51:34.648Z,4.07
2018-09-28T21:54:03.195Z,5.10
2018-09-28T21:56:31.875Z,3.33
2018-09-28T21:59:00.303Z,4.67
2018-09-28T22:01:28.738Z,3.80
2018-09-28T22:03:57.186Z,4.63
2018-09-28T22:06:25.621Z,2.43
2018-09-28T22:08:54.036Z,3.10
2018-09-28T22:11:22.535Z,4.60
2018-09-28T22:13:50.987Z,3.80
2018-09-28T22:16:19.386Z,4.60
2018-09-28T22:18:47.817Z,3.67
2018-09-28T22:21:16.253Z,7.00
2018-09-28T22:23:44.794Z,4.23
2018-09-28T22:26:13.225Z,5.73
2018-09-28T22:28:41.861Z,8.33
2018-09-28T22:31:10.304Z,6.03
2018-09-28T22:33:39.733Z,8.10
2018-09-28T22:36:08.229Z,6.93
2018-09-28T22:38:38.161Z,5.30
2018-09-28T22:41:06.590Z,5.60
2018-09-28T22:43:35.026Z,6.07
2018-09-28T22:46:03.500Z,5.03
2018-09-28T22:48:31.950Z,5.57
2018-09-28T22:51:00.456Z,6.53
2018-09-28T22:53:28.883Z,5.93
2018-09-28T22:55:57.310Z,5.97
2018-09-28T22:58:26.829Z,7.30
2018-09-28T23:00:55.256Z,5.73
2018-09-28T23:03:23.652Z,6.40
2018-09-28T23:05:52.087Z,5.17
2018-09-28T23:08:20.620Z,6.70
2018-09-28T23:10:49.085Z,10.27
2018-09-28T23:13:18.067Z,10.53
2018-09-28T23:15:46.530Z,6.00
2018-09-28T23:18:14.983Z,10.03
2018-09-28T23:20:43.424Z,7.93
2018-09-28T23:23:11.831Z,7.27
2018-09-28T23:25:40.286Z,11.30
2018-09-28T23:28:08.811Z,8.07
2018-09-28T23:30:37.259Z,6.83
2018-09-28T23:33:05.716Z,8.67
2018-09-28T23:35:34.173Z,8.07
2018-09-28T23:38:02.599Z,10.20
2018-09-28T23:40:31.012Z,8.30
2018-09-28T23:42:59.545Z,7.50
2018-09-28T23:45:28.089Z,7.63
2018-09-28T23:47:56.526Z,5.07
2018-09-28T23:50:24.954Z,6.73
2018-09-28T23:52:53.397Z,7.43
2018-09-28T23:55:21.876Z,10.40
2018-09-28T23:57:50.338Z,6.43
